Time;durP1;ratioP1;P1;durP2;ratioP2;P2;SDS_P1;SDS_P2;PMS_P1;PMS_P2;Temp;Humidity;BMP_temperature;BMP_pressure;BME280_temperature;BME280_humidity;BME280_pressure;Samples;Min_cycle;Max_cycle;Signal;HPM_P1;HPM_P2
2022/07/31 00:00:37;;;;;;;8.60;3.10;;;;;;;20.12;67.01;101691.19;5033256;28;20048;-83
2022/07/31 00:03:03;;;;;;;6.68;3.00;;;;;;;20.13;67.08;101683.84;5031616;28;20021;-83
2022/07/31 00:05:29;;;;;;;11.95;3.45;;;;;;;20.10;67.74;101687.03;5031892;28;20021;-83
2022/07/31 00:07:55;;;;;;;8.57;3.53;;;;;;;20.08;68.39;101670.00;5032161;28;20051;-83
2022/07/31 00:10:20;;;;;;;7.85;3.38;;;;;;;20.07;68.26;101671.91;5032954;28;20092;-83
2022/07/31 00:12:46;;;;;;;9.60;3.17;;;;;;;20.05;69.20;101679.50;5031572;28;20029;-83
2022/07/31 00:15:11;;;;;;;6.47;3.22;;;;;;;20.04;69.54;101677.00;5033138;28;20442;-84
2022/07/31 00:17:41;;;;;;;9.30;3.65;;;;;;;20.03;69.96;101675.31;5015366;28;20188;-83
2022/07/31 00:20:08;;;;;;;10.07;2.97;;;;;;;20.05;69.98;101667.72;5031851;28;20029;-82
2022/07/31 00:22:34;;;;;;;6.88;2.88;;;;;;;20.05;70.29;101670.47;5034483;28;20107;-83
2022/07/31 00:24:59;;;;;;;12.65;3.42;;;;;;;20.03;70.38;101670.66;5040261;28;20132;-83
2022/07/31 00:27:25;;;;;;;7.30;2.70;;;;;;;20.02;70.87;101669.00;5033072;28;20135;-83
2022/07/31 00:29:50;;;;;;;12.65;3.05;;;;;;;20.04;70.78;101671.53;5031213;28;20017;-83
2022/07/31 00:32:15;;;;;;;13.90;3.42;;;;;;;20.05;71.11;101667.72;5031600;28;20032;-83
2022/07/31 00:34:43;;;;;;;11.60;3.03;;;;;;;19.98;71.66;101667.78;5032367;28;20069;-83
2022/07/31 00:37:09;;;;;;;10.95;3.58;;;;;;;19.94;72.14;101666.56;5032573;28;20396;-83
2022/07/31 00:39:35;;;;;;;10.02;3.05;;;;;;;19.94;72.04;101667.41;5033294;28;20060;-83
2022/07/31 00:42:01;;;;;;;7.05;3.17;;;;;;;19.97;72.28;101668.03;5031545;28;20034;-83
2022/07/31 00:44:26;;;;;;;9.05;3.17;;;;;;;19.94;72.73;101661.94;5031808;28;20026;-83
2022/07/31 00:46:51;;;;;;;11.32;3.80;;;;;;;19.90;73.23;101662.59;5032156;28;20079;-83
2022/07/31 00:49:17;;;;;;;11.50;3.30;;;;;;;19.93;73.23;101654.81;5033237;28;20102;-83
2022/07/31 00:51:43;;;;;;;8.95;3.35;;;;;;;19.96;73.38;101650.78;5034623;28;20098;-82
2022/07/31 00:54:09;;;;;;;9.13;3.38;;;;;;;19.96;73.79;101648.06;5050247;28;20025;-83
2022/07/31 00:56:34;;;;;;;6.03;3.05;;;;;;;19.87;74.01;101647.50;5050596;28;20022;-83
2022/07/31 00:59:00;;;;;;;11.65;3.35;;;;;;;19.88;74.62;101645.59;5053015;28;20071;-83
2022/07/31 01:01:26;;;;;;;12.18;3.50;;;;;;;19.82;74.92;101641.88;5052334;28;20034;-84
2022/07/31 01:03:52;;;;;;;9.95;3.33;;;;;;;19.77;75.25;101641.69;5052930;28;20163;-83
2022/07/31 01:06:19;;;;;;;10.68;3.40;;;;;;;19.78;75.37;101648.03;5048974;28;20033;-84
2022/07/31 01:08:44;;;;;;;12.23;3.47;;;;;;;19.80;75.87;101641.28;5042482;28;20045;-83
2022/07/31 01:11:16;;;;;;;10.23;3.55;;;;;;;19.82;75.71;101639.13;5041194;28;20288;-83
2022/07/31 01:13:55;;;;;;;8.13;3.03;;;;;;;19.84;75.82;101650.69;5041011;28;20449;-83
2022/07/31 01:16:23;;;;;;;9.35;3.63;;;;;;;19.88;76.21;101641.00;5036170;28;20036;-83
2022/07/31 01:18:49;;;;;;;7.72;3.08;;;;;;;19.88;76.40;101634.66;5033965;28;20021;-82
2022/07/31 01:21:24;;;;;;;9.43;3.35;;;;;;;19.87;76.90;101644.75;5031161;28;20031;-83
2022/07/31 01:24:07;;;;;;;9.50;3.38;;;;;;;19.90;77.03;101638.84;5032406;28;20503;-83
2022/07/31 01:26:59;;;;;;;6.00;3.28;;;;;;;19.92;77.21;101647.66;5033352;28;20496;-83
2022/07/31 01:29:27;;;;;;;9.43;3.95;;;;;;;19.94;77.70;101644.72;5031862;28;20049;-82
2022/07/31 01:31:56;;;;;;;10.00;3.03;;;;;;;19.91;78.60;101643.25;5031255;28;20044;-82
2022/07/31 01:34:25;;;;;;;12.18;3.45;;;;;;;19.93;78.14;101632.09;5028595;28;20486;-82
2022/07/31 01:36:57;;;;;;;10.98;4.13;;;;;;;19.95;78.33;101625.34;5032134;28;20156;-84
2022/07/31 01:39:24;;;;;;;7.95;3.63;;;;;;;19.82;79.62;101625.47;5014580;28;20018;-83
2022/07/31 01:41:50;;;;;;;8.82;3.47;;;;;;;19.77;80.08;101627.22;5031199;28;20100;-83
2022/07/31 01:44:17;;;;;;;10.70;3.33;;;;;;;19.73;80.65;101632.28;5033840;28;20033;-83
2022/07/31 01:46:43;;;;;;;12.63;4.13;;;;;;;19.72;80.69;101630.59;5037196;28;20308;-83
2022/07/31 01:49:10;;;;;;;10.18;4.22;;;;;;;19.71;80.33;101620.75;5038386;28;20032;-83
2022/07/31 01:51:37;;;;;;;9.20;4.18;;;;;;;19.70;80.69;101611.72;5043905;28;20027;-83
2022/07/31 01:54:03;;;;;;;9.40;4.05;;;;;;;19.69;80.80;101614.66;5039976;28;20079;-83
2022/07/31 01:56:30;;;;;;;6.43;3.33;;;;;;;19.67;81.10;101617.66;5036627;28;20037;-83
2022/07/31 01:58:58;;;;;;;8.68;3.35;;;;;;;19.68;81.04;101615.75;5035931;28;20025;-83
2022/07/31 02:01:23;;;;;;;12.68;4.22;;;;;;;19.63;81.08;101604.63;5034052;28;20030;-83
2022/07/31 02:03:49;;;;;;;8.30;3.55;;;;;;;19.65;81.48;101605.25;5034904;28;20067;-82
2022/07/31 02:06:17;;;;;;;15.38;4.00;;;;;;;19.66;81.39;101599.56;5034964;28;20062;-82
2022/07/31 02:08:48;;;;;;;16.40;4.55;;;;;;;19.54;82.13;101601.34;5019254;28;20075;-84
2022/07/31 02:11:15;;;;;;;12.93;4.13;;;;;;;19.49;82.58;101590.25;5037313;28;20025;-83
2022/07/31 02:13:41;;;;;;;7.35;3.80;;;;;;;19.49;82.52;101593.81;5043444;28;20029;-82
2022/07/31 02:16:07;;;;;;;14.60;3.88;;;;;;;19.50;82.44;101598.22;5040461;28;20029;-82
2022/07/31 02:18:33;;;;;;;11.90;4.18;;;;;;;19.47;82.56;101600.56;5039430;28;20037;-83
2022/07/31 02:20:58;;;;;;;9.45;3.72;;;;;;;19.47;82.67;101606.84;5024970;28;20018;-82
2022/07/31 02:23:24;;;;;;;16.25;3.70;;;;;;;19.44;82.67;101603.75;5047215;28;20080;-82
2022/07/31 02:25:50;;;;;;;6.07;3.47;;;;;;;19.44;82.57;101601.84;5047895;28;20024;-82
2022/07/31 02:28:19;;;;;;;8.65;3.25;;;;;;;19.44;82.50;101590.09;5038588;28;20105;-82
2022/07/31 02:30:46;;;;;;;8.95;3.58;;;;;;;19.44;82.41;101585.47;5038598;28;20021;-83
2022/07/31 02:33:20;;;;;;;5.47;2.60;;;;;;;19.49;82.35;101585.63;5042529;28;20085;-82
2022/07/31 02:35:48;;;;;;;7.63;2.78;;;;;;;19.48;81.99;101592.16;5055376;28;20049;-83
2022/07/31 02:38:14;;;;;;;6.45;2.88;;;;;;;19.41;82.47;101594.09;5058047;28;20060;-82
2022/07/31 02:40:39;;;;;;;11.75;2.70;;;;;;;19.35;82.77;101597.69;5052857;28;20040;-83
2022/07/31 02:43:05;;;;;;;5.05;2.80;;;;;;;19.40;83.19;101603.31;5048214;28;20025;-82
2022/07/31 02:45:31;;;;;;;6.60;2.75;;;;;;;19.42;82.81;101598.47;5037209;28;20041;-82
2022/07/31 02:47:56;;;;;;;8.27;2.78;;;;;;;19.45;82.71;101581.66;5055131;28;20018;-82
2022/07/31 02:50:23;;;;;;;5.88;2.55;;;;;;;19.49;82.55;101582.91;5054460;28;20077;-82
2022/07/31 02:52:48;;;;;;;9.90;3.20;;;;;;;19.45;82.60;101581.66;5040686;28;20139;-81
2022/07/31 02:55:14;;;;;;;10.73;3.13;;;;;;;19.34;83.04;101578.81;5038746;28;20034;-83
2022/07/31 02:57:39;;;;;;;8.70;2.97;;;;;;;19.39;83.05;101573.53;5041666;28;20052;-81
2022/07/31 03:00:21;;;;;;;6.65;2.80;;;;;;;19.28;83.27;101572.38;5052799;28;20245;-82
2022/07/31 03:02:47;;;;;;;6.20;3.42;;;;;;;19.25;83.66;101573.66;5040289;28;20046;-82
2022/07/31 03:05:13;;;;;;;8.07;3.72;;;;;;;19.25;83.81;101564.63;5056387;28;20039;-82
2022/07/31 03:07:38;;;;;;;13.38;4.03;;;;;;;19.27;83.76;101573.41;5054761;28;20037;-83
2022/07/31 03:10:04;;;;;;;7.72;3.13;;;;;;;19.28;83.58;101564.19;5053754;28;20044;-83
2022/07/31 03:12:29;;;;;;;7.93;3.38;;;;;;;19.29;84.35;101571.31;5055021;28;20034;-82
2022/07/31 03:14:55;;;;;;;10.00;3.80;;;;;;;19.37;85.60;101573.75;5054788;28;20029;-82
2022/07/31 03:17:21;;;;;;;9.07;4.07;;;;;;;19.30;85.19;101570.25;5056352;28;20025;-83
2022/07/31 03:19:48;;;;;;;9.30;3.53;;;;;;;19.31;85.52;101569.19;5054691;28;20034;-83
2022/07/31 03:22:13;;;;;;;7.95;5.05;;;;;;;19.27;85.75;101565.22;5034298;28;20084;-82
2022/07/31 03:24:39;;;;;;;7.72;4.88;;;;;;;19.25;85.71;101572.81;5016954;28;20116;-83
2022/07/31 03:27:04;;;;;;;9.70;4.38;;;;;;;19.22;86.01;101568.63;5033514;28;20025;-83
2022/07/31 03:29:39;;;;;;;6.65;3.88;;;;;;;19.23;86.30;101566.75;5032870;28;20068;-81
2022/07/31 03:32:05;;;;;;;7.18;3.90;;;;;;;19.25;85.32;101565.47;5035621;28;20453;-82
2022/07/31 03:34:31;;;;;;;11.10;4.53;;;;;;;19.20;85.34;101573.47;5037003;28;20128;-83
2022/07/31 03:36:57;;;;;;;11.60;4.38;;;;;;;19.17;85.20;101567.59;5041504;28;20029;-83
2022/07/31 03:39:24;;;;;;;12.88;4.70;;;;;;;19.16;85.46;101561.31;5035634;28;20033;-82
2022/07/31 03:41:49;;;;;;;10.60;4.70;;;;;;;19.14;84.97;101557.13;5036575;28;20152;-83
2022/07/31 03:44:15;;;;;;;11.63;5.10;;;;;;;19.12;84.78;101557.38;5036088;28;20029;-83
2022/07/31 03:46:40;;;;;;;9.23;4.35;;;;;;;19.10;84.77;101567.66;5033287;28;20033;-82
2022/07/31 03:49:06;;;;;;;6.85;4.38;;;;;;;19.05;84.69;101560.13;5033866;28;20083;-82
2022/07/31 03:51:32;;;;;;;16.90;5.60;;;;;;;19.02;84.75;101552.41;5042845;28;20112;-83
2022/07/31 03:53:57;;;;;;;10.90;5.45;;;;;;;19.00;84.26;101557.22;5045735;28;20044;-82
2022/07/31 03:56:23;;;;;;;19.55;5.50;;;;;;;18.96;84.48;101545.09;5037379;28;20029;-82
2022/07/31 03:58:49;;;;;;;12.25;6.53;;;;;;;18.93;84.74;101555.59;5040434;28;20032;-83
2022/07/31 04:01:15;;;;;;;13.15;6.05;;;;;;;18.91;84.94;101546.81;5036805;28;20077;-82
2022/07/31 04:03:41;;;;;;;11.02;5.57;;;;;;;18.87;85.41;101546.41;5038007;28;20473;-83
2022/07/31 04:06:06;;;;;;;12.38;7.55;;;;;;;18.89;85.35;101549.75;5034826;28;20039;-83
2022/07/31 04:08:32;;;;;;;23.13;6.60;;;;;;;18.83;85.71;101546.03;5035018;28;20465;-84
2022/07/31 04:10:58;;;;;;;15.63;6.25;;;;;;;18.91;85.66;101542.19;5033117;28;20037;-83
2022/07/31 04:13:23;;;;;;;18.63;7.50;;;;;;;18.86;86.14;101539.31;5020658;28;20029;-82
2022/07/31 04:15:50;;;;;;;16.42;6.60;;;;;;;18.89;86.24;101543.47;5032468;28;20080;-83
2022/07/31 04:18:15;;;;;;;14.90;6.45;;;;;;;18.89;86.39;101536.13;5034290;28;20072;-83
2022/07/31 04:20:40;;;;;;;13.43;7.05;;;;;;;18.91;86.24;101535.91;5027614;28;20111;-85
2022/07/31 04:23:06;;;;;;;16.48;7.35;;;;;;;18.88;86.70;101536.34;5023354;28;20021;-83
2022/07/31 04:25:32;;;;;;;22.00;7.57;;;;;;;18.86;87.06;101533.84;5032982;28;20052;-82
2022/07/31 04:27:59;;;;;;;15.07;7.72;;;;;;;18.90;87.31;101539.69;5035812;28;20034;-83
2022/07/31 04:30:24;;;;;;;17.08;6.97;;;;;;;18.89;87.43;101538.84;5033824;28;20083;-83
2022/07/31 04:32:49;;;;;;;18.75;7.40;;;;;;;18.97;87.63;101546.78;5032147;28;20424;-82
2022/07/31 04:35:15;;;;;;;15.88;6.75;;;;;;;19.04;87.17;101544.84;5032447;28;20368;-83
2022/07/31 04:37:40;;;;;;;17.77;8.00;;;;;;;19.11;86.66;101541.22;5032151;28;20018;-83
2022/07/31 04:40:06;;;;;;;13.50;7.25;;;;;;;19.10;86.91;101525.91;5031794;28;20044;-83
2022/07/31 04:42:32;;;;;;;20.35;8.30;;;;;;;19.08;87.08;101531.56;5030998;28;20034;-83
2022/07/31 04:44:57;;;;;;;17.67;7.50;;;;;;;19.10;87.35;101523.19;5035473;28;20048;-83
2022/07/31 04:47:23;;;;;;;19.10;7.80;;;;;;;19.13;87.28;101522.72;5039804;28;20116;-83
2022/07/31 04:49:49;;;;;;;19.75;7.82;;;;;;;19.16;87.41;101522.28;5044553;28;20064;-84
2022/07/31 04:52:14;;;;;;;15.55;7.90;;;;;;;19.16;87.40;101519.56;5040439;28;20421;-84
2022/07/31 04:54:39;;;;;;;18.63;7.68;;;;;;;19.21;87.68;101531.47;5032552;28;20068;-82
2022/07/31 04:57:05;;;;;;;25.67;8.27;;;;;;;19.25;87.52;101529.16;5032515;28;20033;-82
2022/07/31 04:59:31;;;;;;;17.10;8.18;;;;;;;19.30;87.18;101534.78;5034591;28;20076;-84
2022/07/31 05:01:56;;;;;;;24.95;9.77;;;;;;;19.16;88.25;101530.47;5037510;28;20065;-81
2022/07/31 05:04:22;;;;;;;20.33;9.40;;;;;;;19.12;88.52;101521.06;5041030;28;20029;-83
2022/07/31 05:06:49;;;;;;;24.13;9.88;;;;;;;19.14;89.02;101518.94;5032021;28;20052;-84
2022/07/31 05:09:17;;;;;;;23.08;9.02;;;;;;;19.17;88.72;101523.94;5032843;28;20065;-84
2022/07/31 05:11:43;;;;;;;20.52;9.38;;;;;;;19.11;89.13;101522.13;5014057;28;20057;-84
2022/07/31 05:14:10;;;;;;;21.50;10.20;;;;;;;19.01;89.73;101520.72;5016906;28;20018;-83
2022/07/31 05:16:38;;;;;;;26.75;9.93;;;;;;;19.02;90.05;101522.38;5036051;28;20025;-84
2022/07/31 05:19:13;;;;;;;23.67;9.18;;;;;;;18.99;90.65;101525.56;5036159;28;20027;-84
2022/07/31 05:21:38;;;;;;;26.70;10.25;;;;;;;19.03;90.72;101529.50;5052821;28;20040;-82
2022/07/31 05:24:04;;;;;;;25.70;9.85;;;;;;;19.04;90.93;101520.28;5058723;28;20029;-82
2022/07/31 05:26:30;;;;;;;24.05;8.73;;;;;;;19.11;90.70;101530.31;5039947;28;20132;-83
2022/07/31 05:28:57;;;;;;;33.13;10.25;;;;;;;19.16;90.88;101527.75;5037598;28;20080;-84
2022/07/31 05:31:23;;;;;;;19.10;9.10;;;;;;;19.19;90.78;101519.09;5045981;28;20029;-84
2022/07/31 05:33:50;;;;;;;22.25;9.95;;;;;;;19.22;90.93;101524.13;5060570;28;20025;-83
2022/07/31 05:36:16;;;;;;;29.38;9.85;;;;;;;19.22;90.68;101526.84;5047519;28;20037;-85
2022/07/31 05:38:42;;;;;;;24.55;9.02;;;;;;;19.23;90.74;101512.16;5042802;28;20056;-87
2022/07/31 05:41:08;;;;;;;24.23;9.68;;;;;;;19.29;90.76;101517.53;5029662;28;20039;-84
2022/07/31 05:43:33;;;;;;;28.52;9.77;;;;;;;19.33;90.88;101507.03;5027433;28;20159;-84
2022/07/31 05:45:59;;;;;;;24.75;9.73;;;;;;;19.33;90.79;101515.22;5036748;28;20138;-86
2022/07/31 05:48:24;;;;;;;29.67;9.90;;;;;;;19.35;91.02;101502.16;5042372;28;20021;-84
2022/07/31 05:50:51;;;;;;;27.20;10.95;;;;;;;19.38;90.95;101517.25;5042093;28;20033;-84
2022/07/31 05:53:17;;;;;;;30.73;11.00;;;;;;;19.27;91.43;101514.22;5043187;28;20021;-85
2022/07/31 05:55:44;;;;;;;35.22;11.85;;;;;;;19.28;91.34;101504.13;5052958;28;20413;-83
2022/07/31 05:58:10;;;;;;;26.77;10.60;;;;;;;19.36;91.48;101511.22;5047854;28;20037;-85
2022/07/31 06:00:36;;;;;;;32.40;11.82;;;;;;;19.36;91.50;101512.03;5045277;28;20025;-84
2022/07/31 06:03:02;;;;;;;34.28;11.38;;;;;;;19.38;91.29;101517.25;5049473;28;20021;-86
2022/07/31 06:05:31;;;;;;;30.92;11.73;;;;;;;19.36;91.62;101508.47;5031227;28;20037;-84
2022/07/31 06:07:57;;;;;;;41.25;12.90;;;;;;;19.27;92.11;101507.91;5048061;28;20044;-83
2022/07/31 06:10:23;;;;;;;32.10;11.30;;;;;;;19.29;92.72;101514.81;5030148;28;20076;-82
2022/07/31 06:12:49;;;;;;;37.47;12.15;;;;;;;19.32;92.53;101519.00;5043850;28;20005;-83
2022/07/31 06:15:15;;;;;;;26.83;11.43;;;;;;;19.38;92.94;101515.38;5045334;28;20144;-86
2022/07/31 06:17:41;;;;;;;30.83;12.85;;;;;;;19.36;93.64;101516.66;5040515;28;20445;-84
2022/07/31 06:20:08;;;;;;;31.67;12.82;;;;;;;19.34;94.37;101503.22;5041395;28;20025;-84
2022/07/31 06:22:34;;;;;;;34.28;12.45;;;;;;;19.22;95.25;101510.47;5039068;28;20085;-84
2022/07/31 06:25:00;;;;;;;40.92;12.75;;;;;;;19.26;95.85;101511.72;5042201;28;20060;-82
2022/07/31 06:27:25;;;;;;;31.00;12.73;;;;;;;19.25;96.17;101515.50;5039329;28;20036;-83
2022/07/31 06:29:51;;;;;;;27.30;11.73;;;;;;;19.29;96.40;101516.72;5037590;28;20564;-83
2022/07/31 06:32:17;;;;;;;28.65;12.10;;;;;;;19.33;96.34;101520.69;5034533;28;20033;-82
2022/07/31 06:34:43;;;;;;;36.83;12.68;;;;;;;19.37;96.43;101516.44;5038417;28;20052;-83
2022/07/31 06:37:09;;;;;;;30.48;12.45;;;;;;;19.44;96.46;101503.56;5049509;28;20032;-84
2022/07/31 06:39:34;;;;;;;36.33;12.90;;;;;;;19.45;95.79;101502.50;5044261;28;20029;-84
2022/07/31 06:41:59;;;;;;;43.97;12.95;;;;;;;19.38;95.37;101504.47;5038060;28;20037;-86
2022/07/31 06:44:25;;;;;;;33.30;13.73;;;;;;;19.44;95.28;101513.66;5035055;28;20107;-88
2022/07/31 06:46:50;;;;;;;25.15;11.95;;;;;;;19.44;95.43;101513.66;5039279;28;20040;-86
2022/07/31 06:49:17;;;;;;;29.95;12.88;;;;;;;19.43;95.30;101523.75;5042233;28;20049;-83
2022/07/31 06:51:42;;;;;;;44.67;13.82;;;;;;;19.45;95.08;101509.84;5043949;28;20129;-84
2022/07/31 06:54:09;;;;;;;35.40;14.27;;;;;;;19.42;95.25;101513.03;5013924;28;20386;-84
2022/07/31 06:56:38;;;;;;;27.50;13.38;;;;;;;19.48;94.91;101512.97;5039712;28;20335;-85
2022/07/31 06:59:05;;;;;;;31.08;12.73;;;;;;;19.48;94.65;101517.59;5036817;28;20133;-84
2022/07/31 07:01:32;;;;;;;30.83;12.93;;;;;;;19.52;94.60;101518.81;5028261;28;20064;-84
2022/07/31 07:03:58;;;;;;;37.95;12.80;;;;;;;19.51;94.72;101514.44;5039099;28;20076;-83
2022/07/31 07:06:23;;;;;;;35.50;11.90;;;;;;;19.60;94.38;101514.97;5025634;28;20029;-83
2022/07/31 07:08:49;;;;;;;35.63;13.80;;;;;;;19.60;94.68;101518.53;5039860;28;20166;-85
2022/07/31 07:11:15;;;;;;;36.22;12.73;;;;;;;19.64;95.20;101508.84;5039043;28;20065;-84
2022/07/31 07:13:40;;;;;;;31.33;13.82;;;;;;;19.72;94.78;101511.28;5046297;28;20041;-82
2022/07/31 07:16:06;;;;;;;32.45;14.23;;;;;;;19.68;95.30;101510.06;5026882;28;20029;-82
2022/07/31 07:18:31;;;;;;;41.88;16.75;;;;;;;19.57;96.00;101504.50;5028169;28;20116;-81
2022/07/31 07:20:57;;;;;;;36.40;14.60;;;;;;;19.46;97.50;101511.53;5038813;28;20139;-82
2022/07/31 07:23:22;;;;;;;36.17;16.67;;;;;;;19.47;98.35;101507.72;5037455;28;20033;-81
2022/07/31 07:25:48;;;;;;;39.58;15.05;;;;;;;19.45;99.28;101504.38;5059495;28;20029;-81
2022/07/31 07:28:14;;;;;;;38.97;15.68;;;;;;;19.38;99.69;101499.00;5047120;28;20030;-80
2022/07/31 07:30:39;;;;;;;37.72;16.13;;;;;;;19.43;100.00;101501.03;5039403;28;20056;-82
2022/07/31 07:33:05;;;;;;;36.83;16.25;;;;;;;19.41;100.00;101511.38;5035934;28;20033;-82
2022/07/31 07:35:31;;;;;;;31.92;15.60;;;;;;;19.43;100.00;101501.03;5038504;28;20049;-81
2022/07/31 07:37:56;;;;;;;35.33;16.58;;;;;;;19.39;100.00;101500.66;5039294;28;20056;-82
2022/07/31 07:40:23;;;;;;;33.65;16.83;;;;;;;19.40;100.00;101504.22;5032880;28;20049;-82
2022/07/31 07:42:48;;;;;;;40.22;16.15;;;;;;;19.40;100.00;101496.03;5035861;28;20041;-82
2022/07/31 07:45:14;;;;;;;42.88;16.13;;;;;;;19.37;100.00;101502.78;5037799;28;20033;-82
2022/07/31 07:47:39;;;;;;;43.13;15.93;;;;;;;19.45;100.00;101497.03;5033284;28;20106;-81
2022/07/31 07:50:06;;;;;;;31.45;15.65;;;;;;;19.42;100.00;101502.94;5025834;28;20118;-80
2022/07/31 07:52:32;;;;;;;36.50;15.90;;;;;;;19.46;100.00;101495.16;5037550;28;20033;-82
2022/07/31 07:54:58;;;;;;;33.38;15.52;;;;;;;19.53;100.00;101496.72;5035535;28;20061;-83
2022/07/31 07:57:23;;;;;;;41.33;17.02;;;;;;;19.55;100.00;101492.97;5029726;28;20033;-82
2022/07/31 07:59:48;;;;;;;35.95;16.20;;;;;;;19.50;100.00;101491.72;5015825;28;20037;-81
2022/07/31 08:02:14;;;;;;;46.83;16.02;;;;;;;19.41;100.00;101492.25;5040285;28;20033;-81
2022/07/31 08:04:40;;;;;;;30.42;14.13;;;;;;;19.49;100.00;101492.81;5036470;28;20017;-82
2022/07/31 08:07:06;;;;;;;31.70;15.32;;;;;;;19.53;100.00;101491.28;5040319;28;20025;-83
2022/07/31 08:09:32;;;;;;;32.67;15.52;;;;;;;19.60;100.00;101484.94;5041472;28;20052;-82
2022/07/31 08:11:58;;;;;;;42.20;15.63;;;;;;;19.65;100.00;101479.63;5038021;28;20031;-79
2022/07/31 08:14:24;;;;;;;32.35;15.00;;;;;;;19.70;100.00;101479.81;5034847;28;20108;-80
2022/07/31 08:16:50;;;;;;;35.85;15.50;;;;;;;19.72;100.00;101483.13;5038372;28;20353;-83
2022/07/31 08:19:15;;;;;;;32.70;15.13;;;;;;;19.84;100.00;101481.31;5033128;28;20029;-85
2022/07/31 08:21:40;;;;;;;28.73;14.00;;;;;;;19.76;100.00;101481.63;5033213;28;20045;-84
2022/07/31 08:24:07;;;;;;;27.52;13.80;;;;;;;19.89;100.00;101478.75;5044518;28;20541;-83
2022/07/31 08:29:17;;;;;;;33.70;13.30;;;;;;;19.90;100.00;101485.84;5041683;28;20412;-85
2022/07/31 08:31:42;;;;;;;26.38;13.20;;;;;;;19.83;99.77;101484.28;5024510;28;20128;-84
2022/07/31 08:34:08;;;;;;;36.90;12.95;;;;;;;19.90;99.93;101469.47;5020291;28;20053;-83
2022/07/31 08:36:34;;;;;;;33.53;15.32;;;;;;;19.77;99.41;101479.72;5041467;28;20676;-83
2022/07/31 08:38:59;;;;;;;30.17;14.38;;;;;;;19.71;99.42;101481.47;5039990;28;20033;-82
2022/07/31 08:41:25;;;;;;;26.88;14.00;;;;;;;19.68;99.44;101482.75;5038537;28;20078;-81
2022/07/31 08:43:50;;;;;;;37.05;14.98;;;;;;;19.71;99.60;101478.75;5037955;28;20085;-82
2022/07/31 08:46:16;;;;;;;34.47;14.73;;;;;;;19.80;100.00;101480.13;5043612;28;20056;-83
2022/07/31 08:48:42;;;;;;;31.30;15.40;;;;;;;19.65;99.45;101482.34;5038798;28;20044;-82
2022/07/31 08:51:11;;;;;;;35.50;16.55;;;;;;;19.62;99.77;101488.28;5035588;28;20036;-80
2022/07/31 08:53:37;;;;;;;35.17;16.88;;;;;;;19.61;99.99;101486.59;5034987;28;20025;-82
2022/07/31 08:56:07;;;;;;;33.78;17.85;;;;;;;19.48;99.76;101493.88;5035534;28;20025;-81
2022/07/31 08:58:32;;;;;;;41.95;17.88;;;;;;;19.55;99.84;101492.97;5035986;28;20116;-81
2022/07/31 09:00:58;;;;;;;37.13;18.27;;;;;;;19.53;99.36;101485.81;5037094;28;20107;-82
2022/07/31 09:03:23;;;;;;;35.75;18.33;;;;;;;19.58;99.04;101487.03;5034576;28;20460;-82
2022/07/31 09:05:49;;;;;;;32.83;18.23;;;;;;;19.59;98.78;101488.69;5033882;28;20036;-83
2022/07/31 09:08:14;;;;;;;33.45;17.27;;;;;;;19.61;98.76;101481.13;5036580;28;20064;-83
2022/07/31 09:10:40;;;;;;;39.20;18.92;;;;;;;19.56;98.46;101484.53;5036322;28;20026;-84
2022/07/31 09:13:13;;;;;;;28.70;17.27;;;;;;;19.63;98.47;101485.31;5037839;28;20060;-82
2022/07/31 09:15:39;;;;;;;45.83;21.85;;;;;;;19.64;98.45;101480.66;5034984;28;20048;-80
2022/07/31 09:18:17;;;;;;;38.30;20.38;;;;;;;19.60;98.08;101487.66;5032730;28;20482;-81
2022/07/31 09:20:55;;;;;;;42.92;20.98;;;;;;;19.58;97.99;101492.50;5034687;28;20025;-83
2022/07/31 09:23:21;;;;;;;39.75;20.75;;;;;;;19.59;98.39;101473.19;5039955;28;20060;-85
2022/07/31 09:26:04;;;;;;;37.20;18.95;;;;;;;19.57;98.03;101482.66;5038121;28;20080;-83
2022/07/31 09:28:42;;;;;;;37.75;20.60;;;;;;;19.60;97.32;101482.19;5043286;28;20025;-83
2022/07/31 09:31:08;;;;;;;;;;;;;;;19.64;97.15;101486.13;5040426;28;20029;-86
2022/07/31 09:33:35;;;;;;;29.27;15.95;;;;;;;19.64;97.04;101477.94;5041926;28;20368;-83
2022/07/31 09:36:01;;;;;;;30.88;14.05;;;;;;;19.66;96.91;101484.88;5041451;28;20061;-84
2022/07/31 09:38:47;;;;;;;23.77;13.32;;;;;;;19.62;96.35;101472.72;5048540;28;20057;-82
2022/07/31 09:41:14;;;;;;;30.63;13.50;;;;;;;19.62;95.93;101485.53;5050026;28;20029;-83
2022/07/31 09:43:40;;;;;;;25.25;12.80;;;;;;;19.66;95.75;101478.56;5048222;28;20025;-84
2022/07/31 09:46:08;;;;;;;31.92;12.30;;;;;;;19.68;95.28;101476.47;5046716;28;20166;-82
2022/07/31 09:48:34;;;;;;;20.23;11.45;;;;;;;19.73;94.63;101479.34;5048445;28;20016;-82
2022/07/31 09:51:05;;;;;;;23.67;12.00;;;;;;;19.77;94.68;101486.00;5046989;28;20025;-81
2022/07/31 09:53:44;;;;;;;33.00;11.80;;;;;;;19.74;94.02;101486.47;5049844;28;20097;-82
2022/07/31 09:56:11;;;;;;;24.42;9.93;;;;;;;19.77;94.11;101480.56;5048113;28;20037;-83
2022/07/31 09:58:38;;;;;;;29.30;11.43;;;;;;;19.80;93.25;101474.66;5049456;28;20025;-82
2022/07/31 10:01:04;;;;;;;25.55;10.27;;;;;;;19.79;93.46;101472.97;5050357;28;20063;-83
2022/07/31 10:03:30;;;;;;;27.50;9.20;;;;;;;19.76;93.42;101489.00;5048852;28;20034;-82
2022/07/31 10:05:56;;;;;;;27.88;8.60;;;;;;;19.72;93.72;101485.84;5048006;28;20146;-83
2022/07/31 10:08:22;;;;;;;27.98;9.15;;;;;;;19.63;94.33;101484.47;5050626;28;20040;-83
2022/07/31 10:10:48;;;;;;;20.70;9.00;;;;;;;19.59;94.73;101483.25;5050327;28;20104;-83
2022/07/31 10:13:15;;;;;;;23.80;8.43;;;;;;;19.63;94.95;101485.31;5049422;28;20013;-82
2022/07/31 10:15:41;;;;;;;30.33;8.65;;;;;;;19.67;94.40;101480.28;5031075;28;20025;-84
2022/07/31 10:18:10;;;;;;;28.17;8.27;;;;;;;19.70;94.14;101488.84;5031066;28;20033;-81
2022/07/31 10:20:36;;;;;;;26.92;8.10;;;;;;;19.68;94.52;101487.38;5048152;28;20053;-83
2022/07/31 10:23:22;;;;;;;30.60;8.98;;;;;;;19.64;94.68;101486.13;5043705;28;20034;-84
2022/07/31 10:26:03;;;;;;;27.45;7.47;;;;;;;19.61;94.58;101481.13;5042269;28;20404;-82
2022/07/31 10:28:29;;;;;;;22.67;7.45;;;;;;;19.68;94.64;101477.28;5040698;28;20037;-84
2022/07/31 10:30:55;;;;;;;22.42;7.40;;;;;;;19.69;94.44;101478.13;5041856;28;20093;-83
2022/07/31 10:33:21;;;;;;;20.58;7.70;;;;;;;19.77;94.35;101474.25;5039302;28;20034;-84
2022/07/31 10:36:11;;;;;;;19.50;7.43;;;;;;;19.77;93.61;101480.56;5024196;28;20060;-84
2022/07/31 10:38:57;;;;;;;23.70;7.85;;;;;;;19.74;93.83;101478.28;5044280;28;20042;-83
2022/07/31 10:41:35;;;;;;;14.20;6.93;;;;;;;19.74;95.10;101481.00;5044118;28;20026;-84
2022/07/31 10:44:18;;;;;;;25.13;7.10;;;;;;;19.58;96.76;101487.88;5042457;28;20021;-82
2022/07/31 10:46:44;;;;;;;18.15;6.90;;;;;;;19.57;97.99;101485.38;5027107;28;20032;-83
2022/07/31 10:49:09;;;;;;;20.08;7.90;;;;;;;19.46;97.78;101476.06;5039059;28;20033;-82
2022/07/31 10:51:45;;;;;;;16.40;8.15;;;;;;;19.43;97.97;101471.00;5040427;28;20068;-83
2022/07/31 10:54:12;;;;;;;20.13;8.95;;;;;;;19.50;98.57;101479.97;5023433;28;20029;-82
2022/07/31 10:56:42;;;;;;;23.30;8.23;;;;;;;19.53;98.51;101482.25;5040996;28;20029;-83
2022/07/31 10:59:09;;;;;;;19.73;8.48;;;;;;;19.47;98.36;101475.81;5046404;28;20040;-83
2022/07/31 11:01:50;;;;;;;25.88;8.75;;;;;;;19.51;98.93;101476.22;5046833;28;20032;-81
2022/07/31 11:04:33;;;;;;;20.80;8.02;;;;;;;19.58;98.27;101468.75;5045956;28;20041;-84
2022/07/31 11:06:59;;;;;;;19.45;7.60;;;;;;;19.68;97.33;101465.53;5026956;28;20122;-83
2022/07/31 11:09:26;;;;;;;24.30;8.60;;;;;;;19.77;96.96;101464.16;5046088;28;20029;-82
2022/07/31 11:11:52;;;;;;;27.85;8.27;;;;;;;19.93;96.23;101458.09;5043498;28;20066;-83
2022/07/31 11:14:30;;;;;;;18.80;7.85;;;;;;;20.05;95.18;101460.06;5046983;28;20041;-82
2022/07/31 11:16:55;;;;;;;22.35;7.53;;;;;;;20.17;94.16;101458.22;5042157;28;20223;-83